<?xml version="1.0" encoding="UTF-8"?>
<gpx version="1.0" creator="GPSBabel - http://www.gpsbabel.org" xmlns="http://www.topografix.com/GPX/1/0">
  <time>2015-06-08T09:31:21.427Z</time>
  <bounds minlat="53.651480265" minlon="9.798576739" maxlat="53.697198182" maxlon="9.855150059"/>
  <trk>
    <name>Pinnau-Wulfsm.-Tangstedt 10,6 km</name>
    <trkseg>
      <trkpt lat="53.651480265" lon="9.803535389">
        <ele>-39.276733</ele>
        <time>2011-05-24T07:19:37Z</time>
      </trkpt>
      <trkpt lat="53.653387064" lon="9.800881175">
        <ele>38.590088</ele>
        <time>2011-05-24T07:22:51Z</time>
      </trkpt>
      <trkpt lat="53.654977111" lon="9.798576739">
        <ele>48.683960</ele>
        <time>2011-05-24T07:25:44Z</time>
      </trkpt>
      <trkpt lat="53.655244745" lon="9.799061380">
        <ele>43.396606</ele>
        <time>2011-05-24T07:36:46Z</time>
      </trkpt>
      <trkpt lat="53.657683544" lon="9.799210327">
        <ele>44.838623</ele>
        <time>2011-05-24T07:40:22Z</time>
      </trkpt>
      <trkpt lat="53.658718038" lon="9.801633367">
        <ele>40.512817</ele>
        <time>2011-05-24T07:42:50Z</time>
      </trkpt>
      <trkpt lat="53.660207419" lon="9.803585764">
        <ele>30.899536</ele>
        <time>2011-05-24T07:45:31Z</time>
      </trkpt>
      <trkpt lat="53.661588840" lon="9.803693891">
        <ele>28.976929</ele>
        <time>2011-05-24T07:49:23Z</time>
      </trkpt>
      <trkpt lat="53.662786279" lon="9.805074641">
        <ele>25.612305</ele>
        <time>2011-05-24T07:55:11Z</time>
      </trkpt>
      <trkpt lat="53.663557330" lon="9.807857014">
        <ele>22.728271</ele>
        <time>2011-05-24T07:57:30Z</time>
      </trkpt>
      <trkpt lat="53.664316395" lon="9.810573673">
        <ele>21.286377</ele>
        <time>2011-05-24T08:00:10Z</time>
      </trkpt>
      <trkpt lat="53.665788174" lon="9.812030112">
        <ele>17.441162</ele>
        <time>2011-05-24T08:05:03Z</time>
      </trkpt>
      <trkpt lat="53.667462710" lon="9.813132500">
        <ele>16.479736</ele>
        <time>2011-05-24T08:07:23Z</time>
      </trkpt>
      <trkpt lat="53.669203296" lon="9.813850410">
        <ele>15.999023</ele>
        <time>2011-05-24T08:09:46Z</time>
      </trkpt>
      <trkpt lat="53.670930136" lon="9.813930457">
        <ele>13.115112</ele>
        <time>2011-05-24T08:12:19Z</time>
      </trkpt>
      <trkpt lat="53.672578437" lon="9.814732689">
        <ele>12.634399</ele>
        <time>2011-05-24T08:15:48Z</time>
      </trkpt>
      <trkpt lat="53.672904829" lon="9.817613466">
        <ele>10.711792</ele>
        <time>2011-05-24T08:18:14Z</time>
      </trkpt>
      <trkpt lat="53.673931025" lon="9.819623614">
        <ele>8.789185</ele>
        <time>2011-05-24T08:26:39Z</time>
      </trkpt>
      <trkpt lat="53.675482767" lon="9.820506480">
        <ele>6.866455</ele>
        <time>2011-05-24T08:31:26Z</time>
      </trkpt>
      <trkpt lat="53.676326741" lon="9.819491347">
        <ele>3.982666</ele>
        <time>2011-05-24T08:50:16Z</time>
      </trkpt>
      <trkpt lat="53.677871861" lon="9.819053058">
        <ele>3.982666</ele>
        <time>2011-05-24T08:53:24Z</time>
      </trkpt>
      <trkpt lat="53.679859294" lon="9.818621473">
        <ele>4.463257</ele>
        <time>2011-05-24T08:56:18Z</time>
      </trkpt>
      <trkpt lat="53.681653440" lon="9.817656968">
        <ele>4.463257</ele>
        <time>2011-05-24T08:58:49Z</time>
      </trkpt>
      <trkpt lat="53.683271650" lon="9.817264108">
        <ele>6.385864</ele>
        <time>2011-05-24T09:01:24Z</time>
      </trkpt>
      <trkpt lat="53.684573695" lon="9.816934196">
        <ele>4.943848</ele>
        <time>2011-05-24T09:04:08Z</time>
      </trkpt>
      <trkpt lat="53.685225807" lon="9.819793347">
        <ele>4.463257</ele>
        <time>2011-05-24T09:06:54Z</time>
      </trkpt>
      <trkpt lat="53.684815597" lon="9.822723074">
        <ele>1.579346</ele>
        <time>2011-05-24T09:09:28Z</time>
      </trkpt>
      <trkpt lat="53.685328150" lon="9.825655734">
        <ele>0.137451</ele>
        <time>2011-05-24T09:12:32Z</time>
      </trkpt>
      <trkpt lat="53.686900008" lon="9.827565048">
        <ele>-0.824097</ele>
        <time>2011-05-24T09:15:09Z</time>
      </trkpt>
      <trkpt lat="53.688519225" lon="9.829463717">
        <ele>-0.824097</ele>
        <time>2011-05-24T09:18:44Z</time>
      </trkpt>
      <trkpt lat="53.690369781" lon="9.828489320">
        <ele>-1.785278</ele>
        <time>2011-05-24T09:21:15Z</time>
      </trkpt>
      <trkpt lat="53.691607788" lon="9.830175592">
        <ele>-2.265991</ele>
        <time>2011-05-24T09:23:52Z</time>
      </trkpt>
      <trkpt lat="53.693434037" lon="9.830475328">
        <ele>-3.707886</ele>
        <time>2011-05-24T09:26:18Z</time>
      </trkpt>
      <trkpt lat="53.695311919" lon="9.829485426">
        <ele>-3.707886</ele>
        <time>2011-05-24T09:29:05Z</time>
      </trkpt>
      <trkpt lat="53.696387401" lon="9.831933025">
        <ele>-4.188599</ele>
        <time>2011-05-24T09:35:08Z</time>
      </trkpt>
      <trkpt lat="53.696743129" lon="9.835122256">
        <ele>-4.188599</ele>
        <time>2011-05-24T09:37:43Z</time>
      </trkpt>
      <trkpt lat="53.696985617" lon="9.838358425">
        <ele>-3.227295</ele>
        <time>2011-05-24T09:40:17Z</time>
      </trkpt>
      <trkpt lat="53.697091481" lon="9.841405749">
        <ele>-3.227295</ele>
        <time>2011-05-24T09:42:38Z</time>
      </trkpt>
      <trkpt lat="53.697182005" lon="9.844471933">
        <ele>-2.746704</ele>
        <time>2011-05-24T09:45:22Z</time>
      </trkpt>
      <trkpt lat="53.697198182" lon="9.847626379">
        <ele>-2.265991</ele>
        <time>2011-05-24T09:47:48Z</time>
      </trkpt>
      <trkpt lat="53.696545819" lon="9.850322250">
        <ele>-2.265991</ele>
        <time>2011-05-24T09:51:03Z</time>
      </trkpt>
      <trkpt lat="53.696587645" lon="9.852549909">
        <ele>-0.343384</ele>
        <time>2011-05-24T10:01:46Z</time>
      </trkpt>
      <trkpt lat="53.695453070" lon="9.853707198">
        <ele>-1.304688</ele>
        <time>2011-05-24T10:07:57Z</time>
      </trkpt>
      <trkpt lat="53.693712568" lon="9.853313835">
        <ele>-5.149902</ele>
        <time>2011-05-24T10:12:33Z</time>
      </trkpt>
      <trkpt lat="53.691820018" lon="9.854145488">
        <ele>-6.111206</ele>
        <time>2011-05-24T10:15:19Z</time>
      </trkpt>
      <trkpt lat="53.690235419" lon="9.855150059">
        <ele>-5.630493</ele>
        <time>2011-05-24T10:18:11Z</time>
      </trkpt>
      <trkpt lat="53.688545460" lon="9.854818722">
        <ele>-5.149902</ele>
        <time>2011-05-24T10:20:33Z</time>
      </trkpt>
      <trkpt lat="53.686869666" lon="9.854751583">
        <ele>-2.265991</ele>
        <time>2011-05-24T10:22:58Z</time>
      </trkpt>
      <trkpt lat="53.685426302" lon="9.853793113">
        <ele>-1.304688</ele>
        <time>2011-05-24T10:26:51Z</time>
      </trkpt>
      <trkpt lat="53.684824230" lon="9.850857854">
        <ele>-1.785278</ele>
        <time>2011-05-24T10:29:31Z</time>
      </trkpt>
      <trkpt lat="53.683501231" lon="9.850383941">
        <ele>-1.785278</ele>
        <time>2011-05-24T10:32:59Z</time>
      </trkpt>
      <trkpt lat="53.681737762" lon="9.851163542">
        <ele>-1.785278</ele>
        <time>2011-05-24T10:36:10Z</time>
      </trkpt>
      <trkpt lat="53.680131622" lon="9.851030186">
        <ele>0.618042</ele>
        <time>2011-05-24T10:39:08Z</time>
      </trkpt>
      <trkpt lat="53.678709883" lon="9.848944433">
        <ele>-0.343384</ele>
        <time>2011-05-24T10:41:55Z</time>
      </trkpt>
      <trkpt lat="53.677526945" lon="9.846266750">
        <ele>-1.785278</ele>
        <time>2011-05-24T10:46:22Z</time>
      </trkpt>
      <trkpt lat="53.676502006" lon="9.844050156">
        <ele>-2.746704</ele>
        <time>2011-05-24T10:48:57Z</time>
      </trkpt>
      <trkpt lat="53.676367560" lon="9.843534501">
        <ele>0.618042</ele>
        <time>2011-05-24T11:09:51Z</time>
      </trkpt>
    </trkseg>
  </trk>
</gpx>
